Bareilly — A8KG7 — position and weather

sailwx.info

Track history (hours):
 
Tides and Currents Weather Stations Pressure Air Temp Water Temp Dewpoint Dewpoint Depression Visibility Wind Speed Wind Dir Waves Ship Positions

Bareilly

Last reported at 2017-Apr-21 19:59 UTC. Time now 2017-Apr-24 07:30 UTC.
Position S 37°58' E 144°49'.

Length 243 m; draft 8.2 m.

Type: Tanker. MMSI: 636013054.

Date/timePositionNaut miles runAvg speedWind from/ knotsBaromVisibWave heightAir tempDewpointWater temp
2017-Apr-21 19:59S 37°58' E 144°49'0 0.0
2017-Apr-21 15:53S 37°58' E 144°49'0 0.0
2017-Apr-21 13:23S 37°58' E 144°49'0 0.0
2017-Apr-20 15:29S 37°58' E 144°49'4 4.2
2017-Apr-20 14:32S 37°56' E 144°53'213.8
2017-Apr-20 14:25S 37°54' E 144°55'3 2.5
2017-Apr-20 13:23S 37°52' E 144°55'  
2017-Apr-13 23:08S 37°52' E 144°55'0 0.0
2017-Apr-13 23:00S 37°52' E 144°55'0 0.2
2017-Apr-13 22:23S 37°52' E 144°55'1 2.6
2017-Apr-13 21:59S 37°53' E 144°56'3 6.7
2017-Apr-13 21:30S 37°56' E 144°56'  
Track history (hours):
 
Tides and Currents Weather Stations Pressure Air Temp Water Temp Dewpoint Dewpoint Depression Visibility Wind Speed Wind Dir Waves Ship Positions

Bareilly

Last reported at 2017-Apr-21 19:59 UTC. Time now 2017-Apr-24 07:30 UTC.
Position S 37°58' E 144°49'.

Length 243 m; draft 8.2 m.

Type: Tanker. MMSI: 636013054.

Date/timePositionNaut miles runAvg speedWind from/ knotsBaromVisibWave heightAir tempDewpointWater temp
2017-Apr-21 19:59S 37°58' E 144°49'0 0.0
2017-Apr-21 15:53S 37°58' E 144°49'0 0.0
2017-Apr-21 13:23S 37°58' E 144°49'0 0.0
2017-Apr-20 15:29S 37°58' E 144°49'4 4.2
2017-Apr-20 14:32S 37°56' E 144°53'213.8
2017-Apr-20 14:25S 37°54' E 144°55'3 2.5
2017-Apr-20 13:23S 37°52' E 144°55'  
2017-Apr-13 23:08S 37°52' E 144°55'0 0.0
2017-Apr-13 23:00S 37°52' E 144°55'0 0.2
2017-Apr-13 22:23S 37°52' E 144°55'1 2.6
2017-Apr-13 21:59S 37°53' E 144°56'3 6.7
2017-Apr-13 21:30S 37°56' E 144°56'  

Dump ship's entire track history